createdAt,value
2022-11-10T00:01:30.273Z,46.90
2022-11-10T00:04:03.597Z,46.62
2022-11-10T00:06:38.207Z,46.57
2022-11-10T00:09:17.448Z,46.50
2022-11-10T00:11:55.796Z,46.56
2022-11-10T00:14:45.469Z,46.70
2022-11-10T00:17:19.493Z,46.58
2022-11-10T00:19:53.743Z,46.47
2022-11-10T00:22:27.761Z,46.34
2022-11-10T00:25:01.670Z,46.61
2022-11-10T00:27:41.144Z,46.58
2022-11-10T00:30:17.240Z,46.77
2022-11-10T00:32:52.837Z,46.41
2022-11-10T00:35:29.727Z,46.67
2022-11-10T00:38:06.075Z,46.78
2022-11-10T00:40:53.949Z,46.67
2022-11-10T00:43:30.635Z,46.71
2022-11-10T00:46:07.613Z,46.94
2022-11-10T00:48:40.772Z,46.84
2022-11-10T00:51:21.795Z,46.80
2022-11-10T00:53:55.392Z,46.72
2022-11-10T00:56:29.646Z,46.73
2022-11-10T00:59:09.073Z,46.91
2022-11-10T01:01:42.858Z,46.97
2022-11-10T01:04:18.828Z,46.83
2022-11-10T01:07:07.888Z,46.78
2022-11-10T01:09:43.373Z,46.80
2022-11-10T01:12:18.975Z,46.66
2022-11-10T01:14:56.061Z,46.88
2022-11-10T01:17:33.041Z,46.77
2022-11-10T01:20:09.748Z,46.81
2022-11-10T01:22:43.648Z,46.76
2022-11-10T01:25:20.709Z,46.70
2022-11-10T01:27:56.320Z,46.82
2022-11-10T01:30:32.850Z,46.50
2022-11-10T01:33:09.487Z,46.80
2022-11-10T01:35:45.239Z,47.11
2022-11-10T01:38:22.366Z,46.85
2022-11-10T01:40:58.811Z,47.21
2022-11-10T01:43:35.085Z,47.04
2022-11-10T01:46:12.525Z,46.94
2022-11-10T01:48:51.872Z,46.96
2022-11-10T01:51:32.729Z,46.86
2022-11-10T01:54:26.859Z,47.06
2022-11-10T01:57:08.733Z,47.01
2022-11-10T01:59:49.845Z,47.03
2022-11-10T02:02:46.223Z,47.20
2022-11-10T02:05:23.479Z,47.22
2022-11-10T02:08:01.572Z,47.02
2022-11-10T02:10:36.096Z,47.26
2022-11-10T02:13:10.289Z,47.40
2022-11-10T02:15:47.883Z,47.21
2022-11-10T02:18:27.235Z,46.96
2022-11-10T02:21:08.219Z,47.01
2022-11-10T02:23:55.280Z,47.39
2022-11-10T02:26:34.054Z,47.22
2022-11-10T02:29:09.154Z,47.31
2022-11-10T02:31:48.441Z,47.41
2022-11-10T02:34:28.015Z,47.10
2022-11-10T02:37:09.088Z,47.17
2022-11-10T02:39:44.220Z,47.22
2022-11-10T02:42:22.508Z,47.41
2022-11-10T02:44:59.240Z,47.35
2022-11-10T02:47:34.892Z,47.41
2022-11-10T02:50:09.324Z,47.51
2022-11-10T02:52:50.953Z,47.39
2022-11-10T02:55:25.874Z,47.22
2022-11-10T02:58:02.982Z,47.12
2022-11-10T03:00:39.331Z,47.54
2022-11-10T03:03:17.509Z,47.24
2022-11-10T03:05:51.653Z,47.20
2022-11-10T03:08:27.800Z,47.47
2022-11-10T03:11:01.410Z,47.48
2022-11-10T03:13:58.583Z,47.63
2022-11-10T03:16:29.118Z,47.41
2022-11-10T03:19:03.169Z,47.43
2022-11-10T03:21:38.854Z,47.33
2022-11-10T03:24:17.696Z,47.51
2022-11-10T03:26:52.078Z,47.57
2022-11-10T03:29:26.587Z,47.50
2022-11-10T03:31:57.547Z,47.53
2022-11-10T03:34:31.629Z,47.42
2022-11-10T03:37:02.520Z,47.42
2022-11-10T03:39:34.872Z,47.51
2022-11-10T03:42:05.765Z,47.37
2022-11-10T03:44:35.723Z,47.50
2022-11-10T03:47:05.627Z,47.54
2022-11-10T03:49:36.322Z,47.09
2022-11-10T03:52:07.448Z,47.43
2022-11-10T03:54:40.004Z,47.62
2022-11-10T03:57:09.856Z,47.48
2022-11-10T03:59:40.239Z,48.07
2022-11-10T04:02:10.759Z,47.65
2022-11-10T04:04:57.845Z,47.54
2022-11-10T04:07:44.691Z,47.67
2022-11-10T04:10:17.787Z,47.78
2022-11-10T04:13:04.623Z,47.61
2022-11-10T04:15:47.382Z,47.66
2022-11-10T04:18:24.962Z,47.69
2022-11-10T04:20:57.866Z,47.89
2022-11-10T04:23:35.735Z,47.78
2022-11-10T04:26:26.814Z,47.51
2022-11-10T04:28:59.604Z,47.80
2022-11-10T04:31:33.959Z,47.54
2022-11-10T04:34:04.208Z,47.66
2022-11-10T04:36:37.371Z,47.93
2022-11-10T04:39:09.771Z,47.75
2022-11-10T04:41:42.341Z,47.86
2022-11-10T04:44:12.321Z,47.97
2022-11-10T04:46:44.578Z,48.15
2022-11-10T04:49:15.279Z,48.47
2022-11-10T04:51:45.828Z,48.16
2022-11-10T04:54:15.959Z,48.46
2022-11-10T04:56:48.080Z,48.52
2022-11-10T04:59:18.561Z,48.54
2022-11-10T05:01:48.881Z,48.71
2022-11-10T05:04:19.462Z,48.58
2022-11-10T05:06:49.481Z,48.80
2022-11-10T05:09:19.994Z,48.95
2022-11-10T05:11:52.298Z,49.02
2022-11-10T05:14:22.283Z,49.08
2022-11-10T05:16:52.504Z,49.17
2022-11-10T05:19:22.687Z,49.13
2022-11-10T05:21:53.293Z,49.21
2022-11-10T05:24:23.272Z,48.87
2022-11-10T05:26:55.698Z,49.10
2022-11-10T05:29:26.327Z,48.91
2022-11-10T05:31:56.500Z,48.98
2022-11-10T05:34:26.985Z,49.18
2022-11-10T05:36:57.859Z,48.87
2022-11-10T05:39:27.953Z,49.17
2022-11-10T05:42:00.675Z,48.89
2022-11-10T05:44:31.161Z,48.43
2022-11-10T05:47:01.653Z,48.75
2022-11-10T05:49:32.230Z,48.15
2022-11-10T05:52:02.585Z,48.28
2022-11-10T05:54:32.704Z,48.36
2022-11-10T05:57:04.661Z,48.28
2022-11-10T05:59:35.602Z,47.84
2022-11-10T06:02:05.565Z,48.16
2022-11-10T06:04:39.048Z,47.78
2022-11-10T06:07:10.629Z,47.85
2022-11-10T06:09:40.999Z,47.29
2022-11-10T06:12:13.893Z,47.24
2022-11-10T06:14:44.758Z,47.54
2022-11-10T06:17:15.137Z,47.51
2022-11-10T06:19:45.060Z,47.02
2022-11-10T06:22:15.608Z,47.10
2022-11-10T06:24:46.237Z,46.92
2022-11-10T06:27:18.112Z,46.96
2022-11-10T06:29:48.517Z,46.93
2022-11-10T06:32:19.410Z,46.90
2022-11-10T06:34:49.786Z,46.28
2022-11-10T06:37:20.309Z,46.18
2022-11-10T06:39:50.478Z,45.85
2022-11-10T06:42:22.613Z,45.56
2022-11-10T06:44:53.147Z,45.58
2022-11-10T06:47:23.725Z,45.91
2022-11-10T06:49:54.305Z,45.20
2022-11-10T06:52:24.371Z,45.41
2022-11-10T06:54:54.775Z,45.29
2022-11-10T06:57:26.468Z,44.99
2022-11-10T06:59:57.111Z,44.96
2022-11-10T07:02:27.549Z,45.47
2022-11-10T07:04:58.200Z,44.80
2022-11-10T07:07:28.005Z,45.40
2022-11-10T07:10:00.536Z,45.25
2022-11-10T07:12:35.736Z,45.14
2022-11-10T07:15:06.591Z,44.55
2022-11-10T07:17:43.587Z,45.00
2022-11-10T07:20:14.723Z,44.82
2022-11-10T07:22:44.892Z,44.67
2022-11-10T07:25:15.209Z,43.96
2022-11-10T07:27:47.075Z,44.48
2022-11-10T07:30:17.765Z,44.34
2022-11-10T07:32:48.400Z,44.33
2022-11-10T07:35:19.045Z,44.06
2022-11-10T07:37:49.699Z,44.12
2022-11-10T07:40:19.979Z,43.76
2022-11-10T07:42:51.402Z,43.33
2022-11-10T07:45:21.404Z,43.40
2022-11-10T07:47:51.987Z,43.79
2022-11-10T07:50:22.200Z,43.16
2022-11-10T07:52:53.123Z,43.69
2022-11-10T07:55:23.157Z,43.27
2022-11-10T07:57:59.892Z,43.25
2022-11-10T08:00:30.039Z,43.16
2022-11-10T08:03:05.818Z,43.48
2022-11-10T08:05:37.389Z,43.28
2022-11-10T08:08:07.978Z,42.73
2022-11-10T08:10:38.622Z,43.42
2022-11-10T08:13:12.847Z,42.92
2022-11-10T08:15:44.719Z,42.95
2022-11-10T08:18:21.760Z,42.20
2022-11-10T08:20:51.924Z,42.55
2022-11-10T08:23:22.235Z,42.55
2022-11-10T08:25:53.726Z,41.71
2022-11-10T08:28:26.645Z,42.00
2022-11-10T08:31:01.512Z,42.16
2022-11-10T08:33:34.616Z,41.97
2022-11-10T08:36:05.359Z,41.88
2022-11-10T08:38:35.364Z,41.67
2022-11-10T08:41:05.816Z,41.40
2022-11-10T08:43:38.235Z,41.01
2022-11-10T08:46:09.618Z,41.73
2022-11-10T08:48:40.111Z,41.76
2022-11-10T08:51:10.250Z,41.59
2022-11-10T08:53:40.248Z,41.19
2022-11-10T08:56:11.224Z,41.34
2022-11-10T08:58:50.203Z,41.16
2022-11-10T09:01:23.282Z,41.31
2022-11-10T09:03:53.898Z,40.67
2022-11-10T09:06:24.491Z,41.11
2022-11-10T09:08:54.991Z,41.07
2022-11-10T09:11:25.394Z,40.62
2022-11-10T09:13:57.425Z,40.92
2022-11-10T09:16:27.855Z,41.19
2022-11-10T09:18:57.998Z,40.95
2022-11-10T09:21:28.448Z,40.76
2022-11-10T09:23:58.884Z,41.31
2022-11-10T09:26:29.224Z,40.56
2022-11-10T09:29:01.191Z,40.58
2022-11-10T09:31:31.672Z,40.46
2022-11-10T09:34:02.123Z,40.97
2022-11-10T09:36:32.690Z,41.21
2022-11-10T09:39:03.606Z,40.56
2022-11-10T09:41:34.014Z,40.99
2022-11-10T09:44:20.358Z,41.27
2022-11-10T09:47:00.376Z,40.86
2022-11-10T09:49:40.698Z,40.64
2022-11-10T09:52:15.109Z,40.64
2022-11-10T09:54:51.627Z,41.08
2022-11-10T09:57:28.297Z,41.06
2022-11-10T09:59:59.985Z,41.10
2022-11-10T10:02:38.125Z,40.60
2022-11-10T10:05:38.160Z,41.12
2022-11-10T10:08:13.590Z,40.87
2022-11-10T10:10:50.008Z,40.79
2022-11-10T10:13:47.672Z,40.69
2022-11-10T10:16:31.577Z,41.24
2022-11-10T10:19:14.198Z,41.03
2022-11-10T10:22:04.634Z,41.32
2022-11-10T10:24:35.116Z,40.97
2022-11-10T10:27:14.130Z,41.00
2022-11-10T10:29:49.602Z,41.04
2022-11-10T10:32:23.829Z,40.96
2022-11-10T10:34:54.578Z,41.40
2022-11-10T10:37:37.106Z,41.26
2022-11-10T10:40:08.507Z,41.42
2022-11-10T10:42:41.249Z,41.22
2022-11-10T10:45:24.787Z,41.00
2022-11-10T10:48:00.159Z,41.14
2022-11-10T10:50:36.665Z,41.04
2022-11-10T10:53:17.042Z,41.04
2022-11-10T10:56:00.519Z,41.24
2022-11-10T10:58:34.020Z,41.22
2022-11-10T11:01:10.311Z,41.39
2022-11-10T11:03:49.100Z,41.55
2022-11-10T11:06:27.701Z,41.57
2022-11-10T11:09:01.736Z,41.00
2022-11-10T11:11:35.447Z,41.51
2022-11-10T11:14:23.327Z,41.40
2022-11-10T11:16:57.005Z,41.40
2022-11-10T11:19:33.205Z,41.33
2022-11-10T11:22:48.107Z,41.18
2022-11-10T11:25:31.462Z,40.75
2022-11-10T11:28:17.279Z,40.82
2022-11-10T11:31:07.016Z,41.07
2022-11-10T11:33:50.158Z,40.91
2022-11-10T11:36:41.517Z,40.71
2022-11-10T11:39:33.442Z,40.59
2022-11-10T11:42:22.172Z,41.11
2022-11-10T11:45:14.115Z,41.12
2022-11-10T11:48:05.979Z,41.16
2022-11-10T11:50:46.210Z,40.84
2022-11-10T11:53:44.978Z,41.07
2022-11-10T11:56:27.095Z,40.95
2022-11-10T11:59:21.301Z,41.15
2022-11-10T12:02:31.099Z,41.23
2022-11-10T12:05:19.642Z,41.15
2022-11-10T12:08:01.944Z,41.02
2022-11-10T12:10:51.241Z,41.27
2022-11-10T12:13:47.362Z,40.56
2022-11-10T12:16:29.423Z,40.72
2022-11-10T12:19:15.714Z,41.03
2022-11-10T12:21:54.491Z,40.93
2022-11-10T12:24:58.810Z,41.01
2022-11-10T12:27:38.120Z,40.78
2022-11-10T12:30:15.171Z,40.74
2022-11-10T12:32:55.873Z,40.30
2022-11-10T12:35:31.602Z,40.73
2022-11-10T12:38:08.710Z,40.59
2022-11-10T12:40:44.298Z,40.04
2022-11-10T12:43:31.517Z,40.66
2022-11-10T12:46:07.389Z,40.21
2022-11-10T12:48:50.475Z,40.49
2022-11-10T12:51:31.795Z,40.51
2022-11-10T12:54:02.254Z,40.39
2022-11-10T12:56:43.212Z,40.55
2022-11-10T12:59:35.657Z,40.33
2022-11-10T13:02:20.063Z,40.17
2022-11-10T13:05:12.918Z,40.48
2022-11-10T13:07:44.441Z,40.31
2022-11-10T13:10:28.835Z,40.49
2022-11-10T13:13:08.727Z,40.65
2022-11-10T13:16:02.489Z,40.24
2022-11-10T13:19:00.008Z,40.83
2022-11-10T13:22:14.460Z,40.50
2022-11-10T13:24:47.326Z,41.10
2022-11-10T13:27:58.226Z,40.95
2022-11-10T13:30:45.897Z,40.71
2022-11-10T13:33:40.139Z,40.61
2022-11-10T13:36:12.036Z,40.85
2022-11-10T13:38:44.686Z,40.85
2022-11-10T13:41:28.945Z,40.66
2022-11-10T13:44:00.769Z,40.71
2022-11-10T13:46:39.374Z,40.83
2022-11-10T13:49:40.878Z,41.39
2022-11-10T13:52:19.119Z,41.11
2022-11-10T13:55:24.055Z,41.06
2022-11-10T13:58:03.906Z,40.87
2022-11-10T14:00:37.466Z,40.99
2022-11-10T14:03:09.789Z,41.04
2022-11-10T14:06:19.127Z,41.02
2022-11-10T14:08:57.856Z,40.90
2022-11-10T14:11:38.224Z,40.93
2022-11-10T14:14:19.453Z,41.21
2022-11-10T14:16:50.852Z,40.92
2022-11-10T14:19:38.856Z,40.71
2022-11-10T14:22:25.131Z,40.83
2022-11-10T14:25:07.271Z,40.88
2022-11-10T14:27:41.402Z,40.78
2022-11-10T14:30:27.296Z,41.06
2022-11-10T14:33:01.507Z,41.05
2022-11-10T14:35:35.402Z,41.22
2022-11-10T14:38:20.334Z,40.83
2022-11-10T14:40:52.657Z,40.85
2022-11-10T14:43:32.867Z,41.09
2022-11-10T14:46:05.199Z,40.76
2022-11-10T14:48:40.850Z,40.87
2022-11-10T14:51:17.126Z,40.85
2022-11-10T14:53:55.536Z,40.82
2022-11-10T14:56:29.731Z,40.92
2022-11-10T14:59:04.148Z,40.68
2022-11-10T15:01:41.204Z,40.68
2022-11-10T15:04:16.462Z,41.08
2022-11-10T15:06:52.003Z,40.81
2022-11-10T15:09:31.367Z,40.62
2022-11-10T15:12:22.447Z,40.73
2022-11-10T15:15:01.626Z,40.80
2022-11-10T15:17:50.896Z,40.66
2022-11-10T15:20:41.875Z,40.63
2022-11-10T15:23:27.989Z,40.70
2022-11-10T15:26:03.243Z,40.64
2022-11-10T15:28:35.932Z,40.85
2022-11-10T15:31:10.374Z,40.63
2022-11-10T15:33:47.801Z,40.64
2022-11-10T15:36:32.440Z,40.70
2022-11-10T15:39:20.475Z,40.58
2022-11-10T15:42:00.103Z,40.87
2022-11-10T15:44:30.580Z,40.52
2022-11-10T15:47:02.776Z,40.40
2022-11-10T15:49:38.466Z,40.73
2022-11-10T15:52:18.751Z,40.82
2022-11-10T15:54:48.973Z,40.74
2022-11-10T15:57:22.996Z,40.97
2022-11-10T15:59:53.494Z,40.99
2022-11-10T16:02:27.190Z,40.59
2022-11-10T16:04:59.914Z,40.71
2022-11-10T16:07:31.128Z,40.83
2022-11-10T16:10:02.065Z,40.65
2022-11-10T16:12:35.401Z,40.76
2022-11-10T16:15:07.048Z,40.58
2022-11-10T16:17:38.454Z,40.69
2022-11-10T16:20:17.792Z,40.77
2022-11-10T16:22:48.380Z,40.60
2022-11-10T16:25:27.507Z,40.83
2022-11-10T16:28:05.241Z,40.92
2022-11-10T16:30:36.529Z,40.57
2022-11-10T16:33:07.520Z,40.80
2022-11-10T16:35:37.960Z,41.04
2022-11-10T16:38:28.666Z,40.95
2022-11-10T16:41:01.933Z,40.60
2022-11-10T16:43:34.261Z,40.94
2022-11-10T16:46:15.876Z,40.90
2022-11-10T16:48:49.178Z,40.92
2022-11-10T16:51:20.433Z,40.89
2022-11-10T16:53:53.128Z,40.87
2022-11-10T16:56:23.722Z,40.83
2022-11-10T16:59:02.506Z,40.76
2022-11-10T17:01:36.295Z,40.60
2022-11-10T17:04:12.440Z,40.78
2022-11-10T17:06:43.811Z,41.05
2022-11-10T17:09:20.596Z,40.93
2022-11-10T17:11:51.256Z,40.70
2022-11-10T17:14:23.796Z,40.90
2022-11-10T17:16:56.662Z,40.81
2022-11-10T17:19:29.723Z,41.29
2022-11-10T17:22:00.015Z,41.24
2022-11-10T17:24:30.551Z,41.05
2022-11-10T17:27:00.559Z,41.10
2022-11-10T17:29:33.317Z,41.09
2022-11-10T17:32:03.766Z,41.05
2022-11-10T17:34:34.493Z,41.17
2022-11-10T17:37:05.174Z,41.06
2022-11-10T17:39:36.725Z,41.19
2022-11-10T17:42:07.460Z,41.26
2022-11-10T17:44:41.751Z,41.22
2022-11-10T17:47:12.333Z,41.09
2022-11-10T17:49:42.864Z,41.35
2022-11-10T17:52:20.998Z,41.30
2022-11-10T17:54:51.711Z,41.21
2022-11-10T17:57:22.549Z,41.21
2022-11-10T17:59:55.929Z,41.08
2022-11-10T18:02:26.436Z,41.12
2022-11-10T18:05:10.258Z,41.27
2022-11-10T18:07:40.827Z,41.21
2022-11-10T18:10:14.574Z,41.39
2022-11-10T18:12:45.574Z,41.56
2022-11-10T18:15:20.343Z,41.46
2022-11-10T18:17:50.725Z,41.16
2022-11-10T18:20:21.397Z,41.19
2022-11-10T18:22:51.576Z,41.27
2022-11-10T18:25:21.888Z,41.42
2022-11-10T18:27:51.521Z,41.30
2022-11-10T18:30:24.621Z,41.35
2022-11-10T18:32:54.811Z,41.60
2022-11-10T18:35:25.467Z,41.43
2022-11-10T18:37:56.053Z,41.48
2022-11-10T18:40:26.631Z,41.51
2022-11-10T18:43:03.148Z,41.53
2022-11-10T18:45:39.494Z,41.48
2022-11-10T18:48:10.412Z,41.52
2022-11-10T18:50:41.629Z,41.49
2022-11-10T18:53:15.195Z,41.56
2022-11-10T18:55:55.632Z,41.57
2022-11-10T18:58:25.647Z,41.73
2022-11-10T19:01:06.508Z,41.99
2022-11-10T19:03:39.130Z,41.58
2022-11-10T19:06:09.939Z,41.83
2022-11-10T19:08:40.944Z,41.75
2022-11-10T19:11:13.655Z,41.84
2022-11-10T19:13:44.422Z,41.68
2022-11-10T19:16:19.884Z,41.67
2022-11-10T19:19:07.993Z,41.34
2022-11-10T19:21:38.019Z,41.80
2022-11-10T19:24:09.357Z,41.13
2022-11-10T19:26:39.501Z,41.77
2022-11-10T19:29:09.956Z,41.72
2022-11-10T19:31:42.114Z,41.83
2022-11-10T19:34:12.090Z,41.77
2022-11-10T19:36:42.665Z,41.80
2022-11-10T19:39:13.503Z,41.56
2022-11-10T19:41:44.067Z,41.79
2022-11-10T19:44:14.047Z,41.80
2022-11-10T19:46:47.243Z,41.86
2022-11-10T19:49:18.131Z,41.88
2022-11-10T19:51:48.353Z,41.83
2022-11-10T19:54:20.093Z,41.94
2022-11-10T19:56:50.184Z,42.08
2022-11-10T19:59:21.627Z,41.75
2022-11-10T20:01:54.170Z,41.82
2022-11-10T20:04:24.956Z,41.93
2022-11-10T20:07:14.818Z,42.04
2022-11-10T20:09:44.757Z,41.86
2022-11-10T20:12:15.204Z,41.99
2022-11-10T20:14:45.363Z,41.70
2022-11-10T20:17:18.156Z,41.91
2022-11-10T20:19:49.354Z,41.85
2022-11-10T20:22:19.545Z,41.86
2022-11-10T20:24:52.367Z,41.82
2022-11-10T20:27:23.055Z,41.97
2022-11-10T20:29:54.445Z,41.94
2022-11-10T20:32:28.551Z,41.95
2022-11-10T20:34:58.704Z,41.97
2022-11-10T20:37:29.279Z,42.15
2022-11-10T20:39:59.825Z,42.35
2022-11-10T20:42:30.259Z,42.07
2022-11-10T20:45:01.244Z,42.13
2022-11-10T20:47:33.750Z,42.05
2022-11-10T20:50:04.245Z,42.05
2022-11-10T20:52:36.195Z,42.12
2022-11-10T20:55:07.851Z,41.99
2022-11-10T20:57:38.732Z,42.19
2022-11-10T21:00:10.721Z,42.08
2022-11-10T21:02:42.885Z,42.16
2022-11-10T21:05:13.753Z,42.09
2022-11-10T21:07:44.284Z,42.22
2022-11-10T21:10:14.719Z,42.16
2022-11-10T21:12:55.076Z,42.28
2022-11-10T21:15:25.451Z,42.18
2022-11-10T21:17:57.279Z,42.19
2022-11-10T21:20:28.211Z,42.22
2022-11-10T21:23:03.186Z,42.45
2022-11-10T21:25:33.758Z,42.18
2022-11-10T21:28:06.039Z,42.23
2022-11-10T21:30:36.604Z,42.37
2022-11-10T21:33:11.132Z,42.12
2022-11-10T21:35:41.608Z,42.09
2022-11-10T21:38:15.654Z,42.22
2022-11-10T21:40:45.948Z,42.42
2022-11-10T21:43:16.322Z,42.31
2022-11-10T21:45:47.424Z,42.33
2022-11-10T21:48:19.926Z,42.46
2022-11-10T21:50:50.220Z,42.43
2022-11-10T21:53:21.775Z,42.24
2022-11-10T21:55:53.219Z,42.33
2022-11-10T21:58:23.659Z,42.41
2022-11-10T22:00:54.683Z,42.34
2022-11-10T22:03:27.745Z,42.24
2022-11-10T22:06:19.570Z,42.29
2022-11-10T22:08:50.527Z,42.37
2022-11-10T22:11:39.764Z,42.48
2022-11-10T22:14:32.290Z,42.59
2022-11-10T22:17:19.900Z,42.39
2022-11-10T22:19:52.265Z,42.49
2022-11-10T22:22:22.665Z,42.49
2022-11-10T22:24:53.311Z,42.48
2022-11-10T22:27:23.479Z,42.32
2022-11-10T22:29:54.022Z,42.27
2022-11-10T22:32:24.541Z,42.38
2022-11-10T22:34:57.076Z,42.34
2022-11-10T22:37:36.259Z,42.48
2022-11-10T22:40:23.809Z,42.53
2022-11-10T22:43:10.023Z,42.37
2022-11-10T22:45:39.725Z,42.37
2022-11-10T22:48:26.257Z,42.48
2022-11-10T22:51:02.306Z,42.44
2022-11-10T22:53:32.879Z,42.53
2022-11-10T22:56:03.622Z,42.57
2022-11-10T22:58:33.312Z,42.55
2022-11-10T23:01:08.738Z,42.58
2022-11-10T23:03:40.231Z,42.56
2022-11-10T23:06:13.510Z,42.57
2022-11-10T23:08:44.908Z,42.52
2022-11-10T23:11:17.283Z,42.40
2022-11-10T23:13:48.087Z,42.61
2022-11-10T23:16:21.008Z,42.70
2022-11-10T23:18:53.924Z,42.68
2022-11-10T23:21:29.902Z,42.43
2022-11-10T23:24:00.321Z,42.59
2022-11-10T23:26:34.316Z,42.53
2022-11-10T23:29:04.366Z,42.82
2022-11-10T23:31:34.862Z,42.76
2022-11-10T23:34:05.685Z,42.70
2022-11-10T23:36:37.615Z,42.71
2022-11-10T23:39:19.706Z,42.76
2022-11-10T23:41:50.236Z,42.91
2022-11-10T23:44:21.143Z,42.82
2022-11-10T23:46:51.431Z,42.78
2022-11-10T23:49:22.440Z,42.80
2022-11-10T23:51:55.362Z,42.70
2022-11-10T23:54:25.619Z,42.58
2022-11-10T23:56:56.344Z,42.44
2022-11-10T23:59:27.497Z,42.73
